createdAt,value
2023-02-15T00:02:14.921Z,20.60
2023-02-15T00:05:16.795Z,20.60
2023-02-15T00:08:18.003Z,20.80
2023-02-15T00:11:39.658Z,21.10
2023-02-15T00:14:40.928Z,20.90
2023-02-15T00:17:42.145Z,21.00
2023-02-15T00:20:43.958Z,20.70
2023-02-15T00:23:45.381Z,20.80
2023-02-15T00:26:47.040Z,21.60
2023-02-15T00:29:48.302Z,21.00
2023-02-15T00:32:49.555Z,20.60
2023-02-15T00:35:56.533Z,20.80
2023-02-15T00:38:57.774Z,20.50
2023-02-15T00:41:59.028Z,20.70
2023-02-15T00:45:00.800Z,20.50
2023-02-15T00:48:03.686Z,21.10
2023-02-15T00:51:05.497Z,20.60
2023-02-15T00:54:07.732Z,20.50
2023-02-15T00:57:09.257Z,21.20
2023-02-15T01:00:11.014Z,20.60
2023-02-15T01:03:14.334Z,20.50
2023-02-15T01:06:18.256Z,21.10
2023-02-15T01:09:19.545Z,20.60
2023-02-15T01:12:20.827Z,20.60
2023-02-15T01:15:22.898Z,20.70
2023-02-15T01:18:24.388Z,20.70
2023-02-15T01:21:26.440Z,20.50
2023-02-15T01:24:27.972Z,21.00
2023-02-15T01:27:30.726Z,21.30
2023-02-15T01:30:32.297Z,20.50
2023-02-15T01:33:34.192Z,20.50
2023-02-15T01:36:37.374Z,20.70
2023-02-15T01:39:38.643Z,20.70
2023-02-15T01:42:40.082Z,20.60
2023-02-15T01:45:44.473Z,20.40
2023-02-15T01:48:47.157Z,20.60
2023-02-15T01:51:51.348Z,20.30
2023-02-15T01:54:52.811Z,20.80
2023-02-15T01:57:54.149Z,21.20
2023-02-15T02:00:56.808Z,20.50
2023-02-15T02:04:01.827Z,20.80
2023-02-15T02:07:06.565Z,20.50
2023-02-15T02:10:08.278Z,20.50
2023-02-15T02:13:09.603Z,20.80
2023-02-15T02:16:15.105Z,20.40
2023-02-15T02:19:33.281Z,20.80
2023-02-15T02:22:42.456Z,20.70
2023-02-15T02:25:58.747Z,20.50
2023-02-15T02:29:11.867Z,21.50
2023-02-15T02:32:23.050Z,20.60
2023-02-15T02:35:28.247Z,20.60
2023-02-15T02:38:34.280Z,20.40
2023-02-15T02:41:40.742Z,20.70
2023-02-15T02:44:43.814Z,20.50
2023-02-15T02:47:46.803Z,20.90
2023-02-15T02:50:48.934Z,20.50
2023-02-15T02:53:52.868Z,20.60
2023-02-15T02:56:55.915Z,20.50
2023-02-15T02:59:58.606Z,20.60
2023-02-15T03:03:05.543Z,20.60
2023-02-15T03:06:09.725Z,20.60
2023-02-15T03:09:14.608Z,20.60
2023-02-15T03:12:18.618Z,20.30
2023-02-15T03:15:23.114Z,20.70
2023-02-15T03:18:27.455Z,20.30
2023-02-15T03:21:33.067Z,20.30
2023-02-15T03:24:36.134Z,20.30
2023-02-15T03:27:40.546Z,20.50
2023-02-15T03:30:44.796Z,20.70
2023-02-15T03:33:50.132Z,20.50
2023-02-15T03:36:56.063Z,20.30
2023-02-15T03:40:20.228Z,20.40
2023-02-15T03:43:24.414Z,20.50
2023-02-15T03:46:28.697Z,20.50
2023-02-15T03:49:32.428Z,20.30
2023-02-15T03:52:35.394Z,20.50
2023-02-15T03:55:36.703Z,20.30
2023-02-15T03:58:52.738Z,20.50
2023-02-15T04:01:58.724Z,20.90
2023-02-15T04:05:00.036Z,20.30
2023-02-15T04:08:01.880Z,20.50
2023-02-15T04:11:02.917Z,20.20
2023-02-15T04:14:24.960Z,20.20
2023-02-15T04:17:26.017Z,20.20
2023-02-15T04:20:41.913Z,20.30
2023-02-15T04:23:58.451Z,20.50
2023-02-15T04:27:00.044Z,20.40
2023-02-15T04:30:01.506Z,20.20
2023-02-15T04:33:02.951Z,21.10
2023-02-15T04:36:04.389Z,20.30
2023-02-15T04:39:06.732Z,20.20
2023-02-15T04:42:07.968Z,20.40
2023-02-15T04:45:09.261Z,20.30
2023-02-15T04:48:10.501Z,20.30
2023-02-15T04:51:11.948Z,20.10
2023-02-15T04:54:13.780Z,20.60
2023-02-15T04:57:15.352Z,20.70
2023-02-15T05:00:17.172Z,20.30
2023-02-15T05:03:19.668Z,20.60
2023-02-15T05:06:21.234Z,20.40
2023-02-15T05:09:23.027Z,20.50
2023-02-15T05:12:24.260Z,20.70
2023-02-15T05:15:25.508Z,20.20
2023-02-15T05:18:26.764Z,20.30
2023-02-15T05:21:28.039Z,20.30
2023-02-15T05:24:42.750Z,20.30
2023-02-15T05:27:58.658Z,21.00
2023-02-15T05:31:02.831Z,20.70
2023-02-15T05:34:04.393Z,20.30
2023-02-15T05:37:05.608Z,20.30
2023-02-15T05:40:07.914Z,20.10
2023-02-15T05:43:09.368Z,20.50
2023-02-15T05:46:11.030Z,20.30
2023-02-15T05:49:12.288Z,20.30
2023-02-15T05:52:13.574Z,20.30
2023-02-15T05:55:15.592Z,20.30
2023-02-15T05:58:16.838Z,20.70
2023-02-15T06:01:19.143Z,20.30
2023-02-15T06:04:21.513Z,20.00
2023-02-15T06:07:22.731Z,20.60
2023-02-15T06:10:24.514Z,20.10
2023-02-15T06:13:26.064Z,20.50
2023-02-15T06:16:27.353Z,21.00
2023-02-15T06:19:28.566Z,20.30
2023-02-15T06:22:29.818Z,20.10
2023-02-15T06:25:31.767Z,20.30
2023-02-15T06:28:32.997Z,21.00
2023-02-15T06:31:34.427Z,20.60
2023-02-15T06:34:35.893Z,20.10
2023-02-15T06:37:37.219Z,20.60
2023-02-15T06:40:39.080Z,20.20
2023-02-15T06:43:41.145Z,20.20
2023-02-15T06:46:42.472Z,21.10
2023-02-15T06:49:43.726Z,20.60
2023-02-15T06:52:45.003Z,20.10
2023-02-15T06:55:46.906Z,20.40
2023-02-15T06:58:49.624Z,20.80
2023-02-15T07:01:50.905Z,20.30
2023-02-15T07:04:52.529Z,20.10
2023-02-15T07:07:53.826Z,20.60
2023-02-15T07:11:16.890Z,21.20
2023-02-15T07:14:18.107Z,20.70
2023-02-15T07:17:36.082Z,21.10
2023-02-15T07:20:38.085Z,20.50
2023-02-15T07:23:39.985Z,21.10
2023-02-15T07:26:41.912Z,20.40
2023-02-15T07:29:43.149Z,21.00
2023-02-15T07:32:59.341Z,20.70
2023-02-15T07:36:02.468Z,21.40
2023-02-15T07:39:03.949Z,20.60
2023-02-15T07:42:05.820Z,21.00
2023-02-15T07:45:07.422Z,20.70
2023-02-15T07:48:08.955Z,21.30
2023-02-15T07:51:11.231Z,20.70
2023-02-15T07:54:12.522Z,21.00
2023-02-15T07:57:14.459Z,20.70
2023-02-15T08:00:16.914Z,21.40
2023-02-15T08:03:18.333Z,21.00
2023-02-15T08:06:20.554Z,21.40
2023-02-15T08:09:21.924Z,20.80
2023-02-15T08:12:23.724Z,21.40
2023-02-15T08:15:25.108Z,21.00
2023-02-15T08:18:26.476Z,21.20
2023-02-15T08:21:28.609Z,21.00
2023-02-15T08:24:30.600Z,21.20
2023-02-15T08:27:32.538Z,20.80
2023-02-15T08:30:36.159Z,21.30
2023-02-15T08:33:38.430Z,20.90
2023-02-15T08:36:39.971Z,21.20
2023-02-15T08:39:43.105Z,20.80
2023-02-15T08:42:45.007Z,21.60
2023-02-15T08:45:46.518Z,20.80
2023-02-15T08:48:47.899Z,21.60
2023-02-15T08:51:50.041Z,21.00
2023-02-15T08:54:51.711Z,21.20
2023-02-15T08:57:55.744Z,20.90
2023-02-15T09:00:57.226Z,21.60
2023-02-15T09:03:59.798Z,21.40
2023-02-15T09:07:02.306Z,21.30
2023-02-15T09:10:03.767Z,21.00
2023-02-15T09:13:05.598Z,21.40
2023-02-15T09:16:08.097Z,20.90
2023-02-15T09:19:09.418Z,21.60
2023-02-15T09:22:10.866Z,21.20
2023-02-15T09:25:13.705Z,21.50
2023-02-15T09:28:15.586Z,21.50
2023-02-15T09:31:17.968Z,21.60
2023-02-15T09:34:20.044Z,21.20
2023-02-15T09:37:21.529Z,21.60
2023-02-15T09:40:23.251Z,21.50
2023-02-15T09:43:31.800Z,21.90
2023-02-15T09:46:44.854Z,21.30
2023-02-15T09:49:51.133Z,21.80
2023-02-15T09:52:58.232Z,21.40
2023-02-15T09:56:04.401Z,21.60
2023-02-15T09:59:12.153Z,21.30
2023-02-15T10:02:20.670Z,21.80
2023-02-15T10:05:26.583Z,21.40
2023-02-15T10:08:37.347Z,21.90
2023-02-15T10:11:50.138Z,21.40
2023-02-15T10:15:00.771Z,21.70
2023-02-15T10:18:12.516Z,21.30
2023-02-15T10:21:22.206Z,21.80
2023-02-15T10:24:31.454Z,21.30
2023-02-15T10:27:36.044Z,22.00
2023-02-15T10:30:43.237Z,21.30
2023-02-15T10:33:44.592Z,21.80
2023-02-15T10:36:54.068Z,21.40
2023-02-15T10:40:02.318Z,21.90
2023-02-15T10:43:13.315Z,21.40
2023-02-15T10:46:22.254Z,21.50
2023-02-15T10:49:30.491Z,21.50
2023-02-15T10:52:38.027Z,22.00
2023-02-15T10:55:47.399Z,21.60
2023-02-15T10:58:55.165Z,21.90
2023-02-15T11:02:00.080Z,21.70
2023-02-15T11:05:07.015Z,22.10
2023-02-15T11:08:10.128Z,21.70
2023-02-15T11:11:12.875Z,22.50
2023-02-15T11:14:15.890Z,21.60
2023-02-15T11:17:20.298Z,22.10
2023-02-15T11:20:26.145Z,21.80
2023-02-15T11:23:27.853Z,21.90
2023-02-15T11:26:33.568Z,21.70
2023-02-15T11:29:37.117Z,21.90
2023-02-15T11:32:40.267Z,21.60
2023-02-15T11:35:45.884Z,22.20
2023-02-15T11:38:49.476Z,21.60
2023-02-15T11:41:54.112Z,22.20
2023-02-15T11:44:59.074Z,22.00
2023-02-15T11:48:01.429Z,22.20
2023-02-15T11:51:03.720Z,21.80
2023-02-15T11:54:05.258Z,20.70
2023-02-15T11:57:11.808Z,21.80
2023-02-15T12:00:15.308Z,22.50
2023-02-15T12:03:19.350Z,21.80
2023-02-15T12:06:24.269Z,22.00
2023-02-15T12:09:31.287Z,21.80
2023-02-15T12:12:33.535Z,22.10
2023-02-15T12:15:35.451Z,21.90
2023-02-15T12:18:39.071Z,22.10
2023-02-15T12:21:41.681Z,22.00
2023-02-15T12:24:45.825Z,22.40
2023-02-15T12:27:47.368Z,21.80
2023-02-15T12:30:48.719Z,22.60
2023-02-15T12:33:56.963Z,21.90
2023-02-15T12:37:02.288Z,22.10
2023-02-15T12:40:18.770Z,22.10
2023-02-15T12:43:25.725Z,22.50
2023-02-15T12:46:27.135Z,21.70
2023-02-15T12:49:29.941Z,22.50
2023-02-15T12:52:32.622Z,21.90
2023-02-15T12:55:33.965Z,22.10
2023-02-15T12:58:36.169Z,21.70
2023-02-15T13:01:37.536Z,22.20
2023-02-15T13:04:47.767Z,21.80
2023-02-15T13:07:50.349Z,22.10
2023-02-15T13:10:54.381Z,22.10
2023-02-15T13:13:56.754Z,22.70
2023-02-15T13:16:59.576Z,22.10
2023-02-15T13:20:03.187Z,22.60
2023-02-15T13:23:06.385Z,21.60
2023-02-15T13:26:11.685Z,22.30
2023-02-15T13:29:17.777Z,21.90
2023-02-15T13:32:24.770Z,22.20
2023-02-15T13:35:29.099Z,21.90
2023-02-15T13:38:40.320Z,22.50
2023-02-15T13:41:51.333Z,22.00
2023-02-15T13:45:08.888Z,22.60
2023-02-15T13:48:15.853Z,22.00
2023-02-15T13:51:21.518Z,22.60
2023-02-15T13:54:29.255Z,22.20
2023-02-15T13:57:40.141Z,22.40
2023-02-15T14:00:45.907Z,22.00
2023-02-15T14:04:02.123Z,22.40
2023-02-15T14:07:09.853Z,22.00
2023-02-15T14:10:25.599Z,22.80
2023-02-15T14:13:41.705Z,22.00
2023-02-15T14:17:05.456Z,22.70
2023-02-15T14:20:11.894Z,22.40
2023-02-15T14:23:16.874Z,22.80
2023-02-15T14:26:21.379Z,22.10
2023-02-15T14:29:27.429Z,22.50
2023-02-15T14:32:32.046Z,22.20
2023-02-15T14:35:34.266Z,22.90
2023-02-15T14:38:43.106Z,22.30
2023-02-15T14:41:48.069Z,22.80
2023-02-15T14:44:52.673Z,22.10
2023-02-15T14:47:58.479Z,22.60
2023-02-15T14:51:00.025Z,22.50
2023-02-15T14:54:01.941Z,22.80
2023-02-15T14:57:13.217Z,22.60
2023-02-15T15:00:29.663Z,22.40
2023-02-15T15:03:31.155Z,22.30
2023-02-15T15:06:33.801Z,22.90
2023-02-15T15:09:37.516Z,22.10
2023-02-15T15:12:40.223Z,22.60
2023-02-15T15:15:45.568Z,22.20
2023-02-15T15:18:48.012Z,22.70
2023-02-15T15:21:53.167Z,22.20
2023-02-15T15:24:55.573Z,23.00
2023-02-15T15:27:56.813Z,22.60
2023-02-15T15:30:59.682Z,23.10
2023-02-15T15:34:14.481Z,22.70
2023-02-15T15:37:26.095Z,22.90
2023-02-15T15:40:39.828Z,22.60
2023-02-15T15:43:53.640Z,22.70
2023-02-15T15:47:13.288Z,22.60
2023-02-15T15:50:16.173Z,23.20
2023-02-15T15:53:19.929Z,22.50
2023-02-15T15:56:23.550Z,22.90
2023-02-15T15:59:26.353Z,22.50
2023-02-15T16:02:28.193Z,23.20
2023-02-15T16:05:34.942Z,22.80
2023-02-15T16:08:37.773Z,22.90
2023-02-15T16:11:40.032Z,22.60
2023-02-15T16:14:43.009Z,22.70
2023-02-15T16:17:45.766Z,22.80
2023-02-15T16:20:50.339Z,23.10
2023-02-15T16:24:06.413Z,22.40
2023-02-15T16:27:20.286Z,23.30
2023-02-15T16:30:23.881Z,22.90
2023-02-15T16:33:35.971Z,23.00
2023-02-15T16:36:37.241Z,22.80
2023-02-15T16:39:40.908Z,23.40
2023-02-15T16:42:42.810Z,22.70
2023-02-15T16:45:44.122Z,23.20
2023-02-15T16:48:46.876Z,22.80
2023-02-15T16:51:55.473Z,23.20
2023-02-15T16:54:58.267Z,22.70
2023-02-15T16:58:02.849Z,23.50
2023-02-15T17:01:06.799Z,22.80
2023-02-15T17:04:12.510Z,23.60
2023-02-15T17:07:16.083Z,23.10
2023-02-15T17:10:32.205Z,23.10
2023-02-15T17:13:34.116Z,23.10
2023-02-15T17:16:36.360Z,23.20
2023-02-15T17:19:43.284Z,23.10
2023-02-15T17:22:44.697Z,23.20
2023-02-15T17:25:46.102Z,22.80
2023-02-15T17:28:49.523Z,23.30
2023-02-15T17:31:52.308Z,22.90
2023-02-15T17:35:08.407Z,23.40
2023-02-15T17:38:17.768Z,23.10
2023-02-15T17:41:19.504Z,23.10
2023-02-15T17:44:21.310Z,23.00
2023-02-15T17:47:24.785Z,23.50
2023-02-15T17:50:27.230Z,22.90
2023-02-15T17:53:28.777Z,23.30
2023-02-15T17:56:29.849Z,22.90
2023-02-15T17:59:31.650Z,23.50
2023-02-15T18:02:49.587Z,22.80
2023-02-15T18:06:02.920Z,23.30
2023-02-15T18:09:18.879Z,22.80
2023-02-15T18:12:21.490Z,23.50
2023-02-15T18:15:23.838Z,23.10
2023-02-15T18:18:25.373Z,23.40
2023-02-15T18:21:26.760Z,23.00
2023-02-15T18:24:28.279Z,23.10
2023-02-15T18:27:29.678Z,23.10
2023-02-15T18:30:32.033Z,23.00
2023-02-15T18:33:34.554Z,22.70
2023-02-15T18:36:38.918Z,23.30
2023-02-15T18:39:42.883Z,22.70
2023-02-15T18:42:47.109Z,23.00
2023-02-15T18:45:49.082Z,23.00
2023-02-15T18:48:50.353Z,23.30
2023-02-15T18:51:52.425Z,22.70
2023-02-15T18:54:56.828Z,23.10
2023-02-15T18:57:58.157Z,22.80
2023-02-15T19:01:00.187Z,22.50
2023-02-15T19:04:01.439Z,22.60
2023-02-15T19:07:02.744Z,22.80
2023-02-15T19:10:05.013Z,22.60
2023-02-15T19:13:09.092Z,22.40
2023-02-15T19:16:16.636Z,22.90
2023-02-15T19:19:17.920Z,23.20
2023-02-15T19:22:21.263Z,22.50
2023-02-15T19:25:24.194Z,22.90
2023-02-15T19:28:28.322Z,22.60
2023-02-15T19:31:30.343Z,22.90
2023-02-15T19:34:31.834Z,22.30
2023-02-15T19:37:34.072Z,22.70
2023-02-15T19:40:35.607Z,22.70
2023-02-15T19:43:36.961Z,22.60
2023-02-15T19:46:38.792Z,22.30
2023-02-15T19:49:40.115Z,22.30
2023-02-15T19:52:41.644Z,22.30
2023-02-15T19:55:43.044Z,22.70
2023-02-15T19:58:44.302Z,22.40
2023-02-15T20:01:46.182Z,22.60
2023-02-15T20:04:47.712Z,22.30
2023-02-15T20:07:49.720Z,22.60
2023-02-15T20:10:50.957Z,22.40
2023-02-15T20:13:52.260Z,22.10
2023-02-15T20:16:54.165Z,22.20
2023-02-15T20:19:55.615Z,22.90
2023-02-15T20:22:56.908Z,22.10
2023-02-15T20:25:59.199Z,22.50
2023-02-15T20:29:01.151Z,22.00
2023-02-15T20:32:03.148Z,22.40
2023-02-15T20:35:05.230Z,22.10
2023-02-15T20:38:07.139Z,22.00
2023-02-15T20:41:23.364Z,22.00
2023-02-15T20:44:25.347Z,22.80
2023-02-15T20:47:27.905Z,22.20
2023-02-15T20:50:30.804Z,22.50
2023-02-15T20:53:32.136Z,22.10
2023-02-15T20:56:34.058Z,22.70
2023-02-15T20:59:35.308Z,22.00
2023-02-15T21:02:37.186Z,22.10
2023-02-15T21:05:38.493Z,21.90
2023-02-15T21:08:39.774Z,22.30
2023-02-15T21:11:41.534Z,22.20
2023-02-15T21:14:42.919Z,22.40
2023-02-15T21:17:44.718Z,21.80
2023-02-15T21:20:46.898Z,22.40
2023-02-15T21:23:48.782Z,22.00
2023-02-15T21:26:50.635Z,22.50
2023-02-15T21:29:51.875Z,22.00
2023-02-15T21:32:53.909Z,21.80
2023-02-15T21:35:56.686Z,21.80
2023-02-15T21:38:58.047Z,21.70
2023-02-15T21:42:13.371Z,21.80
2023-02-15T21:45:30.202Z,22.30
2023-02-15T21:48:31.990Z,21.80
2023-02-15T21:51:43.411Z,22.00
2023-02-15T21:54:44.694Z,21.80
2023-02-15T21:57:46.221Z,22.40
2023-02-15T22:00:47.757Z,22.00
2023-02-15T22:03:50.419Z,21.60
2023-02-15T22:06:51.985Z,21.90
2023-02-15T22:09:53.678Z,21.60
2023-02-15T22:12:55.166Z,21.80
2023-02-15T22:15:56.554Z,22.60
2023-02-15T22:18:58.383Z,21.80
2023-02-15T22:21:59.638Z,22.10
2023-02-15T22:25:00.864Z,21.70
2023-02-15T22:28:02.449Z,21.90
2023-02-15T22:31:04.401Z,21.90
2023-02-15T22:34:06.458Z,22.40
2023-02-15T22:37:07.794Z,22.00
2023-02-15T22:40:09.606Z,22.00
2023-02-15T22:43:19.366Z,21.80
2023-02-15T22:46:21.776Z,21.60
2023-02-15T22:49:23.601Z,21.80
2023-02-15T22:52:24.813Z,21.50
2023-02-15T22:55:27.767Z,21.70
2023-02-15T22:58:29.382Z,22.30
2023-02-15T23:01:31.455Z,21.80
2023-02-15T23:04:33.339Z,21.80
2023-02-15T23:07:34.611Z,21.80
2023-02-15T23:10:35.909Z,22.00
2023-02-15T23:13:37.495Z,21.60
2023-02-15T23:16:38.792Z,21.80
2023-02-15T23:19:40.605Z,21.70
2023-02-15T23:22:41.958Z,21.60
2023-02-15T23:25:43.562Z,21.50
2023-02-15T23:28:45.530Z,21.50
2023-02-15T23:31:48.377Z,21.50
2023-02-15T23:34:50.471Z,21.80
2023-02-15T23:37:51.908Z,21.60
2023-02-15T23:41:09.764Z,22.10
2023-02-15T23:44:11.585Z,21.80
2023-02-15T23:47:18.479Z,21.50
2023-02-15T23:50:21.749Z,21.50
2023-02-15T23:53:22.955Z,21.50
2023-02-15T23:56:24.498Z,21.50
2023-02-15T23:59:27.309Z,21.80
